createdAt,value
2023-01-25T00:02:17.631Z,47.59
2023-01-25T00:04:46.519Z,47.83
2023-01-25T00:07:14.917Z,47.81
2023-01-25T00:09:43.419Z,48.20
2023-01-25T00:12:11.841Z,48.38
2023-01-25T00:14:40.595Z,48.58
2023-01-25T00:17:09.082Z,48.75
2023-01-25T00:19:38.122Z,48.58
2023-01-25T00:22:06.886Z,48.58
2023-01-25T00:24:38.679Z,48.26
2023-01-25T00:27:07.098Z,48.15
2023-01-25T00:29:35.712Z,48.34
2023-01-25T00:32:07.341Z,48.11
2023-01-25T00:34:45.335Z,48.23
2023-01-25T00:37:24.640Z,48.48
2023-01-25T00:39:55.642Z,48.50
2023-01-25T00:42:24.076Z,48.27
2023-01-25T00:44:52.539Z,48.36
2023-01-25T00:47:24.218Z,48.22
2023-01-25T00:49:52.754Z,48.02
2023-01-25T00:52:22.756Z,48.17
2023-01-25T00:54:51.244Z,48.16
2023-01-25T00:57:20.176Z,48.43
2023-01-25T00:59:48.667Z,48.27
2023-01-25T01:02:19.705Z,48.73
2023-01-25T01:04:48.610Z,48.29
2023-01-25T01:07:17.526Z,48.18
2023-01-25T01:09:46.954Z,47.80
2023-01-25T01:12:16.999Z,47.79
2023-01-25T01:14:45.394Z,48.03
2023-01-25T01:17:13.702Z,47.95
2023-01-25T01:19:41.965Z,47.84
2023-01-25T01:22:10.324Z,47.77
2023-01-25T01:24:39.195Z,47.76
2023-01-25T01:27:07.775Z,47.65
2023-01-25T01:29:36.563Z,47.51
2023-01-25T01:32:06.075Z,47.00
2023-01-25T01:34:35.346Z,47.17
2023-01-25T01:37:04.001Z,47.19
2023-01-25T01:39:32.361Z,47.20
2023-01-25T01:42:01.249Z,47.06
2023-01-25T01:44:50.008Z,46.84
2023-01-25T01:47:24.595Z,46.17
2023-01-25T01:50:07.054Z,46.42
2023-01-25T01:52:36.910Z,46.44
2023-01-25T01:55:12.802Z,46.51
2023-01-25T01:57:43.920Z,46.36
2023-01-25T02:00:13.027Z,46.30
2023-01-25T02:02:42.189Z,46.15
2023-01-25T02:05:14.961Z,46.03
2023-01-25T02:07:43.680Z,46.44
2023-01-25T02:10:12.513Z,46.89
2023-01-25T02:12:42.678Z,47.05
2023-01-25T02:15:11.570Z,47.10
2023-01-25T02:17:42.121Z,46.78
2023-01-25T02:20:22.432Z,46.72
2023-01-25T02:22:53.738Z,46.59
2023-01-25T02:25:22.124Z,46.05
2023-01-25T02:27:53.609Z,47.00
2023-01-25T02:30:22.272Z,47.28
2023-01-25T02:32:53.084Z,47.69
2023-01-25T02:35:36.553Z,47.85
2023-01-25T02:38:05.475Z,48.01
2023-01-25T02:40:36.931Z,47.75
2023-01-25T02:43:06.048Z,47.69
2023-01-25T02:45:35.539Z,47.57
2023-01-25T02:48:04.383Z,47.56
2023-01-25T02:50:33.283Z,47.23
2023-01-25T02:53:01.719Z,47.20
2023-01-25T02:55:30.401Z,47.03
2023-01-25T02:57:58.679Z,47.19
2023-01-25T03:00:27.272Z,47.44
2023-01-25T03:02:55.720Z,47.54
2023-01-25T03:05:25.159Z,47.63
2023-01-25T03:07:53.973Z,47.57
2023-01-25T03:10:23.442Z,47.42
2023-01-25T03:12:51.959Z,47.31
2023-01-25T03:15:20.348Z,47.28
2023-01-25T03:17:48.958Z,47.81
2023-01-25T03:20:18.959Z,47.84
2023-01-25T03:22:48.199Z,47.59
2023-01-25T03:25:16.648Z,47.48
2023-01-25T03:27:56.601Z,47.67
2023-01-25T03:30:25.542Z,47.58
2023-01-25T03:32:54.773Z,47.59
2023-01-25T03:35:23.405Z,47.70
2023-01-25T03:37:53.508Z,47.63
2023-01-25T03:40:21.972Z,47.26
2023-01-25T03:42:52.474Z,46.97
2023-01-25T03:45:20.912Z,47.06
2023-01-25T03:47:50.490Z,46.81
2023-01-25T03:50:20.088Z,46.51
2023-01-25T03:52:52.813Z,46.48
2023-01-25T03:55:21.530Z,46.47
2023-01-25T03:57:52.462Z,46.37
2023-01-25T04:00:22.088Z,46.16
2023-01-25T04:02:50.920Z,45.97
2023-01-25T04:05:20.747Z,46.14
2023-01-25T04:07:49.528Z,46.17
2023-01-25T04:10:20.673Z,46.31
2023-01-25T04:12:50.084Z,46.53
2023-01-25T04:15:20.992Z,46.14
2023-01-25T04:17:49.789Z,45.89
2023-01-25T04:20:23.549Z,45.98
2023-01-25T04:22:52.495Z,45.85
2023-01-25T04:25:21.489Z,45.60
2023-01-25T04:27:54.474Z,45.45
2023-01-25T04:30:23.235Z,45.46
2023-01-25T04:32:52.124Z,45.48
2023-01-25T04:35:24.992Z,45.59
2023-01-25T04:37:56.609Z,45.43
2023-01-25T04:40:26.949Z,45.61
2023-01-25T04:42:55.534Z,45.72
2023-01-25T04:45:25.747Z,45.43
2023-01-25T04:47:58.641Z,45.62
2023-01-25T04:50:27.528Z,45.60
2023-01-25T04:52:56.208Z,45.41
2023-01-25T04:55:24.763Z,45.24
2023-01-25T04:57:53.880Z,46.02
2023-01-25T05:00:22.407Z,46.25
2023-01-25T05:02:51.483Z,46.31
2023-01-25T05:05:19.952Z,46.49
2023-01-25T05:07:48.472Z,46.41
2023-01-25T05:10:17.179Z,46.41
2023-01-25T05:13:02.822Z,47.42
2023-01-25T05:15:32.371Z,47.52
2023-01-25T05:18:01.162Z,47.39
2023-01-25T05:20:29.963Z,47.04
2023-01-25T05:22:58.841Z,46.96
2023-01-25T05:25:46.919Z,47.18
2023-01-25T05:28:16.047Z,47.63
2023-01-25T05:31:15.638Z,48.25
2023-01-25T05:33:44.600Z,48.15
2023-01-25T05:36:12.955Z,48.91
2023-01-25T05:38:42.607Z,49.83
2023-01-25T05:41:12.012Z,49.63
2023-01-25T05:43:40.493Z,49.18
2023-01-25T05:46:12.661Z,49.22
2023-01-25T05:48:41.131Z,49.42
2023-01-25T05:51:10.478Z,49.09
2023-01-25T05:53:39.268Z,48.87
2023-01-25T05:56:08.786Z,49.15
2023-01-25T05:58:37.977Z,49.29
2023-01-25T06:01:07.698Z,49.42
2023-01-25T06:03:42.035Z,49.76
2023-01-25T06:06:10.801Z,49.32
2023-01-25T06:08:39.337Z,49.42
2023-01-25T06:11:11.332Z,50.12
2023-01-25T06:13:45.281Z,50.37
2023-01-25T06:16:13.876Z,49.86
2023-01-25T06:19:00.158Z,49.86
2023-01-25T06:21:47.257Z,49.66
2023-01-25T06:24:16.053Z,49.12
2023-01-25T06:26:44.637Z,48.69
2023-01-25T06:29:13.176Z,48.41
2023-01-25T06:31:41.878Z,48.49
2023-01-25T06:34:11.148Z,48.78
2023-01-25T06:36:39.865Z,48.55
2023-01-25T06:39:08.339Z,48.10
2023-01-25T06:41:37.816Z,47.22
2023-01-25T06:44:06.347Z,47.28
2023-01-25T06:46:35.487Z,47.41
2023-01-25T06:49:04.281Z,47.60
2023-01-25T06:51:33.113Z,46.48
2023-01-25T06:54:02.945Z,46.45
2023-01-25T06:56:33.211Z,46.25
2023-01-25T06:59:02.224Z,45.50
2023-01-25T07:01:31.187Z,44.07
2023-01-25T07:03:59.665Z,43.67
2023-01-25T07:06:33.471Z,42.30
2023-01-25T07:09:07.508Z,43.76
2023-01-25T07:11:36.407Z,42.00
2023-01-25T07:14:04.886Z,41.66
2023-01-25T07:16:37.255Z,39.76
2023-01-25T07:19:06.834Z,39.10
2023-01-25T07:21:35.777Z,38.64
2023-01-25T07:24:04.850Z,39.32
2023-01-25T07:26:33.766Z,37.94
2023-01-25T07:29:02.308Z,37.54
2023-01-25T07:31:31.048Z,36.61
2023-01-25T07:33:59.367Z,36.84
2023-01-25T07:36:27.944Z,35.90
2023-01-25T07:38:58.366Z,36.27
2023-01-25T07:41:26.810Z,36.10
2023-01-25T07:43:55.136Z,35.14
2023-01-25T07:46:40.209Z,34.31
2023-01-25T07:49:08.641Z,33.52
2023-01-25T07:51:37.526Z,32.48
2023-01-25T07:54:06.153Z,32.59
2023-01-25T07:56:36.760Z,32.27
2023-01-25T07:59:08.699Z,33.41
2023-01-25T08:01:37.527Z,30.70
2023-01-25T08:04:06.241Z,33.39
2023-01-25T08:06:39.190Z,32.07
2023-01-25T08:09:13.372Z,30.50
2023-01-25T08:11:42.440Z,31.08
2023-01-25T08:14:11.634Z,31.57
2023-01-25T08:16:40.392Z,31.23
2023-01-25T08:19:10.528Z,30.93
2023-01-25T08:21:38.979Z,30.94
2023-01-25T08:24:07.554Z,31.73
2023-01-25T08:26:36.353Z,31.73
2023-01-25T08:29:07.118Z,29.46
2023-01-25T08:31:36.103Z,29.87
2023-01-25T08:34:04.949Z,29.68
2023-01-25T08:36:34.395Z,30.88
2023-01-25T08:39:07.651Z,27.92
2023-01-25T08:41:36.538Z,28.64
2023-01-25T08:44:05.933Z,29.60
2023-01-25T08:46:35.304Z,30.06
2023-01-25T08:49:04.005Z,29.17
2023-01-25T08:51:33.669Z,29.03
2023-01-25T08:54:11.353Z,28.10
2023-01-25T08:56:40.693Z,28.70
2023-01-25T08:59:11.921Z,29.75
2023-01-25T09:01:40.586Z,28.20
2023-01-25T09:04:09.610Z,28.14
2023-01-25T09:06:40.530Z,29.17
2023-01-25T09:09:08.963Z,28.64
2023-01-25T09:11:38.406Z,28.45
2023-01-25T09:14:06.850Z,27.94
2023-01-25T09:16:35.679Z,27.89
2023-01-25T09:19:04.542Z,28.22
2023-01-25T09:21:33.307Z,27.86
2023-01-25T09:24:07.054Z,27.53
2023-01-25T09:26:38.813Z,28.11
2023-01-25T09:30:21.926Z,28.19
2023-01-25T09:32:55.313Z,27.84
2023-01-25T09:35:24.232Z,28.19
2023-01-25T09:37:52.886Z,27.65
2023-01-25T09:40:25.969Z,28.72
2023-01-25T09:43:03.640Z,28.42
2023-01-25T09:45:36.781Z,27.66
2023-01-25T09:48:14.376Z,28.01
2023-01-25T09:55:35.292Z,27.97
2023-01-25T09:58:04.423Z,28.21
2023-01-25T10:00:39.043Z,28.87
2023-01-25T10:03:23.576Z,28.45
2023-01-25T10:05:57.988Z,28.84
2023-01-25T10:08:44.701Z,28.89
2023-01-25T10:11:31.071Z,29.15
2023-01-25T10:13:59.638Z,29.19
2023-01-25T10:16:39.549Z,29.30
2023-01-25T10:19:15.154Z,28.82
2023-01-25T10:22:05.845Z,29.29
2023-01-25T10:24:35.375Z,28.66
2023-01-25T10:27:24.600Z,29.10
2023-01-25T10:29:53.283Z,28.89
2023-01-25T10:32:24.843Z,28.34
2023-01-25T10:35:08.751Z,28.42
2023-01-25T10:37:39.469Z,28.17
2023-01-25T10:40:24.324Z,28.01
2023-01-25T10:42:56.675Z,28.15
2023-01-25T10:45:27.021Z,27.95
2023-01-25T10:47:58.210Z,27.44
2023-01-25T10:50:42.616Z,27.61
2023-01-25T10:53:34.167Z,28.04
2023-01-25T10:56:06.477Z,29.16
2023-01-25T10:58:46.449Z,29.82
2023-01-25T11:01:41.041Z,30.54
2023-01-25T11:04:35.459Z,30.93
2023-01-25T11:07:06.327Z,31.94
2023-01-25T11:09:36.970Z,32.51
2023-01-25T11:12:11.829Z,32.29
2023-01-25T11:14:40.306Z,32.26
2023-01-25T11:17:38.269Z,32.15
2023-01-25T11:20:18.796Z,32.31
2023-01-25T11:22:55.254Z,32.27
2023-01-25T11:25:34.168Z,33.13
2023-01-25T11:28:16.240Z,33.35
2023-01-25T11:30:45.381Z,33.17
2023-01-25T11:33:14.966Z,33.40
2023-01-25T11:36:08.964Z,33.50
2023-01-25T11:38:37.976Z,33.45
2023-01-25T11:41:17.242Z,34.34
2023-01-25T11:43:54.247Z,34.60
2023-01-25T11:47:02.041Z,35.08
2023-01-25T11:49:57.994Z,34.92
2023-01-25T11:52:40.237Z,34.64
2023-01-25T11:55:18.013Z,35.16
2023-01-25T11:58:11.249Z,35.22
2023-01-25T12:00:45.515Z,36.02
2023-01-25T12:03:27.202Z,35.60
2023-01-25T12:06:07.988Z,35.59
2023-01-25T12:08:36.569Z,35.52
2023-01-25T12:11:40.327Z,35.58
2023-01-25T12:14:37.178Z,35.74
2023-01-25T12:17:28.528Z,35.71
2023-01-25T12:20:04.462Z,35.43
2023-01-25T12:22:52.284Z,35.37
2023-01-25T12:25:31.864Z,35.16
2023-01-25T12:28:19.747Z,35.10
2023-01-25T12:31:19.668Z,34.91
2023-01-25T12:33:56.567Z,35.14
2023-01-25T12:36:34.326Z,35.01
2023-01-25T12:39:09.925Z,35.02
2023-01-25T12:41:59.037Z,35.42
2023-01-25T12:44:31.628Z,35.57
2023-01-25T12:47:08.197Z,35.99
2023-01-25T12:49:47.380Z,36.36
2023-01-25T12:52:21.235Z,36.53
2023-01-25T12:54:49.879Z,36.66
2023-01-25T12:57:51.580Z,36.23
2023-01-25T13:00:41.568Z,36.66
2023-01-25T13:03:18.111Z,36.80
2023-01-25T13:05:46.608Z,37.20
2023-01-25T13:08:48.917Z,37.24
2023-01-25T13:11:23.992Z,36.99
2023-01-25T13:13:53.288Z,37.11
2023-01-25T13:16:31.109Z,37.32
2023-01-25T13:18:59.821Z,37.34
2023-01-25T13:21:38.519Z,37.56
2023-01-25T13:24:18.593Z,37.38
2023-01-25T13:26:54.274Z,37.21
2023-01-25T13:29:32.525Z,37.26
2023-01-25T13:32:01.320Z,37.27
2023-01-25T13:34:39.613Z,37.28
2023-01-25T13:37:24.623Z,37.44
2023-01-25T13:39:55.000Z,37.77
2023-01-25T13:42:29.975Z,38.15
2023-01-25T13:45:04.547Z,38.52
2023-01-25T13:47:43.268Z,39.56
2023-01-25T13:50:14.876Z,39.71
2023-01-25T13:53:00.191Z,39.42
2023-01-25T13:55:29.981Z,39.35
2023-01-25T13:58:16.959Z,39.72
2023-01-25T14:01:19.358Z,39.86
2023-01-25T14:03:52.836Z,39.97
2023-01-25T14:06:24.460Z,40.02
2023-01-25T14:08:53.955Z,40.37
2023-01-25T14:11:30.834Z,40.23
2023-01-25T14:14:03.373Z,40.12
2023-01-25T14:16:32.198Z,40.41
2023-01-25T14:19:24.023Z,40.85
2023-01-25T14:22:31.712Z,41.01
2023-01-25T14:25:17.359Z,41.18
2023-01-25T14:27:53.583Z,41.15
2023-01-25T14:30:32.738Z,41.65
2023-01-25T14:33:31.344Z,41.25
2023-01-25T14:36:16.275Z,41.49
2023-01-25T14:38:52.568Z,41.65
2023-01-25T14:41:29.176Z,41.26
2023-01-25T14:43:59.543Z,41.28
2023-01-25T14:46:35.355Z,41.82
2023-01-25T14:49:26.567Z,42.20
2023-01-25T14:52:05.617Z,42.79
2023-01-25T14:54:37.135Z,43.22
2023-01-25T14:57:07.671Z,43.42
2023-01-25T14:59:37.627Z,43.67
2023-01-25T15:02:39.921Z,43.78
2023-01-25T15:05:20.845Z,44.00
2023-01-25T15:07:50.858Z,43.52
2023-01-25T15:10:27.408Z,43.26
2023-01-25T15:13:07.652Z,42.87
2023-01-25T15:15:58.018Z,42.64
2023-01-25T15:18:48.494Z,42.74
2023-01-25T15:21:21.736Z,42.95
2023-01-25T15:23:50.432Z,43.32
2023-01-25T15:26:23.019Z,43.58
2023-01-25T15:28:55.732Z,43.67
2023-01-25T15:31:25.921Z,43.63
2023-01-25T15:33:55.466Z,43.55
2023-01-25T15:36:24.200Z,43.45
2023-01-25T15:38:52.749Z,43.39
2023-01-25T15:41:24.485Z,43.57
2023-01-25T15:43:53.660Z,43.70
2023-01-25T15:46:23.401Z,43.61
2023-01-25T15:48:52.673Z,43.21
2023-01-25T15:51:21.199Z,43.42
2023-01-25T15:53:49.553Z,43.70
2023-01-25T15:56:49.311Z,44.08
2023-01-25T15:59:18.286Z,44.35
2023-01-25T16:01:46.796Z,44.17
2023-01-25T16:04:17.168Z,44.04
2023-01-25T16:06:50.383Z,44.09
2023-01-25T16:09:20.212Z,44.31
2023-01-25T16:11:51.528Z,44.47
2023-01-25T16:14:20.254Z,44.35
2023-01-25T16:16:49.672Z,44.24
2023-01-25T16:19:19.857Z,44.38
2023-01-25T16:21:51.471Z,44.29
2023-01-25T16:24:19.945Z,44.00
2023-01-25T16:26:52.821Z,44.22
2023-01-25T16:29:23.227Z,44.12
2023-01-25T16:31:52.305Z,44.13
2023-01-25T16:34:22.281Z,44.20
2023-01-25T16:36:54.356Z,44.40
2023-01-25T16:39:24.368Z,44.14
2023-01-25T16:41:52.814Z,44.44
2023-01-25T16:44:22.839Z,44.54
2023-01-25T16:46:52.452Z,44.80
2023-01-25T16:49:23.107Z,44.53
2023-01-25T16:51:52.567Z,44.46
2023-01-25T16:54:21.458Z,44.61
2023-01-25T16:56:50.254Z,44.56
2023-01-25T16:59:18.735Z,44.55
2023-01-25T17:01:47.470Z,44.53
2023-01-25T17:04:16.208Z,44.48
2023-01-25T17:06:46.640Z,44.20
2023-01-25T17:09:24.501Z,44.21
2023-01-25T17:11:54.769Z,44.46
2023-01-25T17:14:23.540Z,44.18
2023-01-25T17:16:55.830Z,44.29
2023-01-25T17:19:25.333Z,44.59
2023-01-25T17:21:53.732Z,44.73
2023-01-25T17:24:22.487Z,44.94
2023-01-25T17:26:51.373Z,44.70
2023-01-25T17:29:19.907Z,44.67
2023-01-25T17:31:48.698Z,45.00
2023-01-25T17:34:22.217Z,44.75
2023-01-25T17:36:52.822Z,45.16
2023-01-25T17:39:21.382Z,45.01
2023-01-25T17:41:50.530Z,44.66
2023-01-25T17:44:23.033Z,44.80
2023-01-25T17:46:51.922Z,44.73
2023-01-25T17:49:22.748Z,44.91
2023-01-25T17:51:51.584Z,44.96
2023-01-25T17:54:21.943Z,45.53
2023-01-25T17:56:50.308Z,45.59
2023-01-25T17:59:19.427Z,45.84
2023-01-25T18:01:49.468Z,45.89
2023-01-25T18:04:18.331Z,46.02
2023-01-25T18:06:49.750Z,46.43
2023-01-25T18:09:19.266Z,46.47
2023-01-25T18:11:48.351Z,46.16
2023-01-25T18:14:17.160Z,46.20
2023-01-25T18:16:46.230Z,46.17
2023-01-25T18:19:14.899Z,45.93
2023-01-25T18:21:43.977Z,45.92
2023-01-25T18:24:34.493Z,46.00
2023-01-25T18:27:23.398Z,46.26
2023-01-25T18:30:26.422Z,46.29
2023-01-25T18:32:54.924Z,46.48
2023-01-25T18:35:25.339Z,46.47
2023-01-25T18:37:56.098Z,46.51
2023-01-25T18:40:25.087Z,46.40
2023-01-25T18:42:56.582Z,46.64
2023-01-25T18:45:26.091Z,46.62
2023-01-25T18:47:54.591Z,46.35
2023-01-25T18:50:24.004Z,46.95
2023-01-25T18:52:54.538Z,46.97
2023-01-25T18:55:23.335Z,47.02
2023-01-25T18:57:51.787Z,46.93
2023-01-25T19:00:20.593Z,46.87
2023-01-25T19:02:49.150Z,46.84
2023-01-25T19:05:20.117Z,46.83
2023-01-25T19:07:48.704Z,47.10
2023-01-25T19:10:17.957Z,47.41
2023-01-25T19:12:46.622Z,47.16
2023-01-25T19:15:15.429Z,47.38
2023-01-25T19:17:44.466Z,47.36
2023-01-25T19:20:14.208Z,47.38
2023-01-25T19:22:42.485Z,47.43
2023-01-25T19:25:11.179Z,47.45
2023-01-25T19:27:40.588Z,47.43
2023-01-25T19:30:10.144Z,47.49
2023-01-25T19:32:38.904Z,47.38
2023-01-25T19:35:08.306Z,47.38
2023-01-25T19:37:37.052Z,47.60
2023-01-25T19:40:09.313Z,47.89
2023-01-25T19:42:38.498Z,48.05
2023-01-25T19:45:08.072Z,47.98
2023-01-25T19:47:37.117Z,48.23
2023-01-25T19:50:06.819Z,48.24
2023-01-25T19:52:36.620Z,48.25
2023-01-25T19:55:06.419Z,48.48
2023-01-25T19:57:35.579Z,48.89
2023-01-25T20:00:07.407Z,49.15
2023-01-25T20:02:36.854Z,49.54
2023-01-25T20:05:09.121Z,49.61
2023-01-25T20:07:38.257Z,49.61
2023-01-25T20:10:07.627Z,49.56
2023-01-25T20:12:37.793Z,49.86
2023-01-25T20:15:08.295Z,50.38
2023-01-25T20:17:38.697Z,50.38
2023-01-25T20:20:08.006Z,50.51
2023-01-25T20:22:36.927Z,50.76
2023-01-25T20:25:05.586Z,50.69
2023-01-25T20:27:34.083Z,50.61
2023-01-25T20:30:02.864Z,50.33
2023-01-25T20:32:33.511Z,50.65
2023-01-25T20:35:06.288Z,50.59
2023-01-25T20:37:34.983Z,50.68
2023-01-25T20:40:04.003Z,50.49
2023-01-25T20:42:32.798Z,50.51
2023-01-25T20:45:01.180Z,50.66
2023-01-25T20:47:29.865Z,50.67
2023-01-25T20:49:58.235Z,50.71
2023-01-25T20:52:26.826Z,50.45
2023-01-25T20:54:55.590Z,50.78
2023-01-25T20:57:24.234Z,51.13
2023-01-25T20:59:52.778Z,50.79
2023-01-25T21:02:21.306Z,50.89
2023-01-25T21:04:49.796Z,50.92
2023-01-25T21:07:18.177Z,50.80
2023-01-25T21:09:47.047Z,50.47
2023-01-25T21:12:16.225Z,50.16
2023-01-25T21:14:45.115Z,50.07
2023-01-25T21:17:14.602Z,49.82
2023-01-25T21:19:43.193Z,49.66
2023-01-25T21:22:12.257Z,49.72
2023-01-25T21:24:41.104Z,49.54
2023-01-25T21:27:10.194Z,49.49
2023-01-25T21:29:38.972Z,48.99
2023-01-25T21:32:07.921Z,48.87
2023-01-25T21:34:37.255Z,48.98
2023-01-25T21:37:05.551Z,49.31
2023-01-25T21:39:34.346Z,49.46
2023-01-25T21:42:03.517Z,49.52
2023-01-25T21:44:51.554Z,49.30
2023-01-25T21:47:29.810Z,49.77
2023-01-25T21:50:18.015Z,49.92
2023-01-25T21:52:46.818Z,49.90
2023-01-25T21:55:15.480Z,49.61
2023-01-25T21:57:47.461Z,49.69
2023-01-25T22:00:16.859Z,50.03
2023-01-25T22:02:45.921Z,49.81
2023-01-25T22:05:14.636Z,50.03
2023-01-25T22:07:43.662Z,50.29
2023-01-25T22:10:12.672Z,50.57
2023-01-25T22:12:42.136Z,50.61
2023-01-25T22:15:11.828Z,51.14
2023-01-25T22:17:41.341Z,50.77
2023-01-25T22:20:11.355Z,50.52
2023-01-25T22:22:40.241Z,50.52
2023-01-25T22:25:09.847Z,50.63
2023-01-25T22:27:52.357Z,50.88
2023-01-25T22:30:20.943Z,51.16
2023-01-25T22:32:49.851Z,50.88
2023-01-25T22:35:18.650Z,50.78
2023-01-25T22:37:47.711Z,51.01
2023-01-25T22:40:16.909Z,51.37
2023-01-25T22:42:45.400Z,51.60
2023-01-25T22:45:13.978Z,51.61
2023-01-25T22:47:43.805Z,51.33
2023-01-25T22:50:12.516Z,51.73
2023-01-25T22:52:41.264Z,51.84
2023-01-25T22:55:11.386Z,51.77
2023-01-25T22:57:40.065Z,51.57
2023-01-25T23:00:10.024Z,51.78
2023-01-25T23:02:40.308Z,52.05
2023-01-25T23:05:08.893Z,51.75
2023-01-25T23:07:37.497Z,51.36
2023-01-25T23:10:06.798Z,51.35
2023-01-25T23:12:35.889Z,51.82
2023-01-25T23:15:15.715Z,51.78
2023-01-25T23:18:03.130Z,51.59
2023-01-25T23:20:31.658Z,51.42
2023-01-25T23:23:00.751Z,51.23
2023-01-25T23:25:30.082Z,51.27
2023-01-25T23:27:58.470Z,51.37
2023-01-25T23:30:27.211Z,51.43
2023-01-25T23:32:55.681Z,51.30
2023-01-25T23:35:25.239Z,51.32
2023-01-25T23:37:53.749Z,51.29
2023-01-25T23:40:22.157Z,51.20
2023-01-25T23:42:51.326Z,51.48
2023-01-25T23:45:26.135Z,51.46
2023-01-25T23:47:55.048Z,51.51
2023-01-25T23:50:23.435Z,51.47
2023-01-25T23:52:52.486Z,51.43
2023-01-25T23:55:20.845Z,51.40
2023-01-25T23:57:49.336Z,51.73
